Time;durP1;ratioP1;P1;durP2;ratioP2;P2;SDS_P1;SDS_P2;PMS_P1;PMS_P2;Temp;Humidity;BMP_temperature;BMP_pressure;BME280_temperature;BME280_humidity;BME280_pressure;Samples;Min_cycle;Max_cycle;Signal;HPM_P1;HPM_P2
2022/12/21 00:01:35;;;;;;;18.30;11.65;;;4.60;90.00;;;;;;4986861;28;20039;-68
2022/12/21 00:04:03;;;;;;;20.88;12.18;;;4.60;90.00;;;;;;4985454;28;20022;-69
2022/12/21 00:06:34;;;;;;;16.92;11.35;;;4.50;90.10;;;;;;4984948;28;20026;-69
2022/12/21 00:09:02;;;;;;;15.30;10.07;;;4.60;90.20;;;;;;4983233;28;20049;-68
2022/12/21 00:11:29;;;;;;;16.75;9.52;;;4.60;90.20;;;;;;4980605;28;20038;-68
2022/12/21 00:13:57;;;;;;;15.45;9.32;;;4.60;90.20;;;;;;4983986;28;20394;-68
2022/12/21 00:16:25;;;;;;;20.52;11.95;;;4.60;90.20;;;;;;4983210;28;20035;-69
2022/12/21 00:18:51;;;;;;;23.23;13.50;;;4.60;90.10;;;;;;4983504;28;20049;-68
2022/12/21 00:21:19;;;;;;;21.80;13.00;;;4.60;90.10;;;;;;4983835;28;20582;-68
2022/12/21 00:23:47;;;;;;;20.70;12.65;;;4.60;90.00;;;;;;4984574;28;20030;-68
2022/12/21 00:26:15;;;;;;;20.42;12.35;;;4.60;90.10;;;;;;4984283;28;20176;-68
2022/12/21 00:28:41;;;;;;;18.00;11.07;;;4.60;90.10;;;;;;4983756;28;20081;-69
2022/12/21 00:31:11;;;;;;;19.15;12.45;;;4.60;90.10;;;;;;4986395;28;20097;-70
2022/12/21 00:33:38;;;;;;;19.17;11.13;;;4.60;90.10;;;;;;4982488;28;20027;-68
2022/12/21 00:36:05;;;;;;;17.10;10.15;;;4.60;90.10;;;;;;4981039;28;20185;-68
2022/12/21 00:38:32;;;;;;;22.38;12.85;;;4.60;90.20;;;;;;4983973;28;20043;-69
2022/12/21 00:41:02;;;;;;;20.75;12.90;;;4.60;90.20;;;;;;4986182;28;20034;-67
2022/12/21 00:43:28;;;;;;;21.55;12.25;;;4.70;90.20;;;;;;4982244;28;20120;-67
2022/12/21 00:45:54;;;;;;;23.52;12.77;;;4.60;90.20;;;;;;4987471;28;20545;-67
2022/12/21 00:48:20;;;;;;;20.10;11.88;;;4.70;90.20;;;;;;4987652;28;20065;-67
2022/12/21 00:50:46;;;;;;;21.25;12.73;;;4.70;90.20;;;;;;4986660;28;20082;-68
2022/12/21 00:53:11;;;;;;;18.73;12.55;;;4.70;90.20;;;;;;4988858;28;20039;-68
2022/12/21 00:55:37;;;;;;;15.85;10.40;;;4.70;90.20;;;;;;4987091;28;20530;-68
2022/12/21 00:58:03;;;;;;;12.68;9.00;;;4.70;90.20;;;;;;4987536;28;20062;-68
2022/12/21 01:00:29;;;;;;;13.27;9.32;;;4.70;90.30;;;;;;4982587;28;20584;-67
2022/12/21 01:02:54;;;;;;;17.15;11.70;;;4.70;90.30;;;;;;4982388;28;20046;-67
2022/12/21 01:05:20;;;;;;;18.17;12.25;;;4.70;90.30;;;;;;4985456;28;20050;-68
2022/12/21 01:07:46;;;;;;;19.35;12.15;;;4.70;90.20;;;;;;4988091;28;20027;-68
2022/12/21 01:10:12;;;;;;;19.77;12.48;;;4.70;90.20;;;;;;4988589;28;20056;-67
2022/12/21 01:12:38;;;;;;;19.38;12.00;;;4.80;90.20;;;;;;4985890;28;20566;-67
2022/12/21 01:15:04;;;;;;;17.38;11.15;;;4.80;90.20;;;;;;4987633;28;20061;-67
2022/12/21 01:17:29;;;;;;;18.88;11.57;;;4.80;90.10;;;;;;4984827;28;20026;-67
2022/12/21 01:19:55;;;;;;;17.25;10.98;;;4.80;90.10;;;;;;4983165;28;20419;-67
2022/12/21 01:22:20;;;;;;;17.80;11.95;;;4.80;90.20;;;;;;4981743;28;20126;-67
2022/12/21 01:24:47;;;;;;;17.08;11.02;;;4.80;90.10;;;;;;4983130;28;20046;-67
2022/12/21 01:27:12;;;;;;;18.80;10.88;;;4.80;90.20;;;;;;4981099;28;20038;-67
2022/12/21 01:29:38;;;;;;;20.85;10.98;;;4.80;90.20;;;;;;4983180;28;20034;-67
2022/12/21 01:32:04;;;;;;;19.92;10.70;;;4.80;90.10;;;;;;4982960;28;20041;-66
2022/12/21 01:34:29;;;;;;;16.80;11.05;;;4.70;90.10;;;;;;4983513;28;20642;-66
2022/12/21 01:36:55;;;;;;;16.20;10.07;;;4.80;90.10;;;;;;4983665;28;20121;-66
2022/12/21 01:39:20;;;;;;;14.77;10.02;;;4.70;90.10;;;;;;4984672;28;20034;-67
2022/12/21 01:41:46;;;;;;;17.75;11.27;;;4.80;90.10;;;;;;4982703;28;20151;-68
2022/12/21 01:44:49;;;;;;;15.40;10.07;;;4.80;90.10;;;;;;4985884;28;20081;-67
2022/12/21 01:47:20;;;;;;;14.02;9.55;;;4.80;90.20;;;;;;4981993;28;20026;-67
2022/12/21 01:49:51;;;;;;;13.82;9.10;;;4.80;90.10;;;;;;4982529;28;20041;-67
2022/12/21 01:52:18;;;;;;;13.32;9.43;;;4.80;90.10;;;;;;4981146;28;20061;-67
2022/12/21 01:54:47;;;;;;;16.13;9.40;;;4.80;90.10;;;;;;4981534;28;20600;-67
2022/12/21 01:57:15;;;;;;;11.00;8.10;;;4.80;90.10;;;;;;4981610;28;20053;-67
2022/12/21 01:59:52;;;;;;;11.32;8.07;;;4.80;90.10;;;;;;4982372;28;20076;-67
2022/12/21 02:02:22;;;;;;;11.27;7.63;;;4.80;90.20;;;;;;4979578;28;22115;-67
2022/12/21 02:04:51;;;;;;;10.07;7.80;;;4.80;90.20;;;;;;4983014;28;20049;-67
2022/12/21 02:07:18;;;;;;;15.60;9.75;;;4.80;90.20;;;;;;4984402;28;20036;-67
2022/12/21 02:09:44;;;;;;;11.80;8.32;;;4.80;90.20;;;;;;4984992;28;20030;-66
2022/12/21 02:12:14;;;;;;;13.60;8.48;;;4.80;90.30;;;;;;4985412;28;20042;-67
2022/12/21 02:14:44;;;;;;;13.95;9.30;;;4.80;90.70;;;;;;4986412;28;20044;-67
2022/12/21 02:17:37;;;;;;;16.20;10.52;;;4.80;90.40;;;;;;4981481;28;20045;-67
2022/12/21 02:20:22;;;;;;;15.43;10.00;;;4.80;90.40;;;;;;4980665;28;20370;-67
2022/12/21 02:22:59;;;;;;;18.77;10.65;;;4.80;90.30;;;;;;4984615;28;20054;-68
2022/12/21 02:25:55;;;;;;;18.42;11.02;;;4.80;90.20;;;;;;4983375;28;20026;-68
2022/12/21 02:29:12;;;;;;;14.30;9.38;;;4.80;90.30;;;;;;4975101;28;20049;-67
2022/12/21 02:31:56;;;;;;;19.25;10.63;;;4.80;90.20;;;;;;4981598;28;20030;-69
2022/12/21 02:34:38;;;;;;;19.23;11.07;;;4.80;90.20;;;;;;4983393;28;20108;-66
2022/12/21 02:37:12;;;;;;;17.10;10.85;;;4.80;90.10;;;;;;4986728;28;20126;-68
2022/12/21 02:39:51;;;;;;;16.65;9.80;;;4.80;90.10;;;;;;4987824;28;20088;-67
2022/12/21 02:45:30;;;;;;;15.02;9.80;;;4.80;90.10;;;;;;4984770;28;20029;-67
2022/12/21 02:48:04;;;;;;;13.52;9.15;;;4.80;90.10;;;;;;4985480;28;20120;-67
2022/12/21 02:50:34;;;;;;;14.07;9.50;;;4.80;90.10;;;;;;4984652;28;20035;-66
2022/12/21 02:53:10;;;;;;;13.00;9.30;;;4.80;90.10;;;;;;4985339;28;20038;-66
2022/12/21 02:55:36;;;;;;;12.40;8.32;;;4.80;90.10;;;;;;4985600;28;20538;-66
2022/12/21 02:58:15;;;;;;;14.85;9.45;;;4.80;90.10;;;;;;4985650;28;20113;-67
2022/12/21 03:00:51;;;;;;;12.15;8.60;;;4.80;90.10;;;;;;4983717;28;20117;-65
2022/12/21 03:03:52;;;;;;;15.70;9.60;;;4.80;90.10;;;;;;4987205;28;20038;-65
2022/12/21 03:06:36;;;;;;;13.32;8.68;;;4.80;90.20;;;;;;4986215;28;20046;-65
2022/12/21 03:09:07;;;;;;;12.23;8.30;;;4.80;90.10;;;;;;4987821;28;20030;-65
2022/12/21 03:12:10;;;;;;;13.40;8.82;;;4.80;90.10;;;;;;4985844;28;20121;-65
2022/12/21 03:14:58;;;;;;;14.90;8.73;;;4.80;90.20;;;;;;4988118;28;20035;-65
2022/12/21 03:17:52;;;;;;;15.77;9.38;;;4.80;90.20;;;;;;4985564;28;20043;-66
2022/12/21 03:20:21;;;;;;;10.60;8.77;;;4.80;90.30;;;;;;4984262;28;20038;-66
2022/12/21 03:23:22;;;;;;;13.60;9.25;;;4.80;90.20;;;;;;4984597;28;20046;-66
2022/12/21 03:25:55;;;;;;;13.75;9.90;;;4.90;90.30;;;;;;4972897;28;20041;-66
2022/12/21 03:28:27;;;;;;;13.00;9.27;;;4.90;90.20;;;;;;4988905;28;20035;-65
2022/12/21 03:30:56;;;;;;;12.57;8.75;;;4.80;90.20;;;;;;4986211;28;20034;-65
2022/12/21 03:33:27;;;;;;;11.80;8.55;;;4.90;90.30;;;;;;4986570;28;20030;-65
2022/12/21 03:36:10;;;;;;;13.70;9.32;;;4.90;90.30;;;;;;4985889;28;20181;-65
2022/12/21 03:38:47;;;;;;;13.55;9.07;;;4.90;90.40;;;;;;4986476;28;20030;-65
2022/12/21 03:41:23;;;;;;;13.68;9.32;;;4.90;90.40;;;;;;4985360;28;20058;-65
2022/12/21 03:43:52;;;;;;;14.23;9.93;;;4.90;90.30;;;;;;4983964;28;20039;-65
2022/12/21 03:46:24;;;;;;;12.15;8.85;;;4.90;90.30;;;;;;4983341;28;20518;-65
2022/12/21 03:48:55;;;;;;;15.52;10.05;;;4.90;90.60;;;;;;4983321;28;20071;-65
2022/12/21 03:51:42;;;;;;;14.30;9.50;;;5.00;90.30;;;;;;4983080;28;20037;-65
2022/12/21 03:54:31;;;;;;;13.88;8.80;;;5.00;90.50;;;;;;4979166;28;20069;-65
2022/12/21 03:56:57;;;;;;;14.23;8.70;;;4.90;90.30;;;;;;4978768;28;20073;-65
2022/12/21 03:59:24;;;;;;;13.82;9.40;;;4.90;90.60;;;;;;4983396;28;20045;-65
2022/12/21 04:01:57;;;;;;;13.73;9.05;;;4.90;90.30;;;;;;4986005;28;20035;-65
2022/12/21 04:04:31;;;;;;;14.45;9.60;;;5.00;90.30;;;;;;4982224;28;20023;-65
2022/12/21 04:07:02;;;;;;;16.65;10.10;;;4.90;90.30;;;;;;4982398;28;20161;-65
2022/12/21 04:09:27;;;;;;;17.05;10.27;;;5.00;90.20;;;;;;4985623;28;20553;-65
2022/12/21 04:14:39;;;;;;;14.07;9.85;;;5.00;90.20;;;;;;4981737;28;20458;-65
2022/12/21 04:17:05;;;;;;;12.65;9.05;;;5.00;90.30;;;;;;5010487;28;20035;-65
2022/12/21 04:30:27;;;;;;;14.90;9.35;;;5.00;90.20;;;;;;4981222;28;20042;-65
2022/12/21 04:32:53;;;;;;;18.52;10.27;;;5.00;90.20;;;;;;4982941;28;20027;-65
2022/12/21 04:35:18;;;;;;;17.77;11.15;;;4.90;90.10;;;;;;4984650;28;20026;-64
2022/12/21 04:37:44;;;;;;;18.50;11.32;;;5.00;90.20;;;;;;4983679;28;20026;-64
2022/12/21 04:40:10;;;;;;;16.40;10.30;;;5.00;90.20;;;;;;4981247;28;20077;-63
2022/12/21 04:42:38;;;;;;;15.07;9.68;;;4.90;90.20;;;;;;4984481;28;20085;-64
2022/12/21 04:45:05;;;;;;;14.50;9.32;;;4.90;90.30;;;;;;4983833;28;20129;-63
2022/12/21 04:47:30;;;;;;;15.43;9.82;;;4.90;90.30;;;;;;4982563;28;20100;-64
2022/12/21 04:49:56;;;;;;;12.10;8.50;;;4.90;90.50;;;;;;4982291;28;20511;-64
2022/12/21 04:52:21;;;;;;;14.02;10.38;;;4.90;90.50;;;;;;4978889;28;20044;-64
2022/12/21 04:54:47;;;;;;;13.45;9.30;;;4.90;90.70;;;;;;4984773;28;20177;-64
2022/12/21 04:57:13;;;;;;;13.00;9.10;;;4.90;90.70;;;;;;4982987;28;20133;-65
2022/12/21 04:59:38;;;;;;;13.90;9.32;;;4.90;90.60;;;;;;4984082;28;20054;-65
2022/12/21 05:02:04;;;;;;;14.20;9.23;;;4.90;90.60;;;;;;4981492;28;20114;-65
2022/12/21 05:04:30;;;;;;;12.57;8.38;;;4.90;90.60;;;;;;4985277;28;20031;-66
2022/12/21 05:06:55;;;;;;;12.85;7.90;;;4.90;90.50;;;;;;4984994;28;20167;-65
2022/12/21 05:09:22;;;;;;;14.25;6.97;;;5.00;90.60;;;;;;4985963;28;20042;-64
2022/12/21 05:11:48;;;;;;;12.23;8.77;;;5.00;90.80;;;;;;4981540;28;20042;-65
2022/12/21 05:14:13;;;;;;;10.98;6.93;;;4.90;90.90;;;;;;4980156;28;20026;-64
2022/12/21 05:16:39;;;;;;;9.60;6.63;;;5.10;91.20;;;;;;4980449;28;20035;-65
2022/12/21 05:19:05;;;;;;;10.80;6.57;;;5.20;91.60;;;;;;4979129;28;20092;-65
2022/12/21 05:21:30;;;;;;;9.38;6.63;;;5.30;91.70;;;;;;4985327;28;20046;-65
2022/12/21 05:23:56;;;;;;;10.82;6.90;;;5.50;92.20;;;;;;4983906;28;20529;-65
2022/12/21 05:26:22;;;;;;;8.27;6.30;;;5.60;91.90;;;;;;4981448;28;20133;-65
2022/12/21 05:28:48;;;;;;;9.38;6.65;;;5.70;91.80;;;;;;4984862;28;20467;-65
2022/12/21 05:31:15;;;;;;;9.18;6.80;;;5.80;91.80;;;;;;4981954;28;21725;-65
2022/12/21 05:33:41;;;;;;;13.30;6.28;;;5.90;91.80;;;;;;4981085;28;20045;-65
2022/12/21 05:36:09;;;;;;;8.35;6.90;;;6.00;91.70;;;;;;4984113;28;20449;-64
2022/12/21 05:38:35;;;;;;;9.23;6.65;;;6.10;91.70;;;;;;4984830;28;20031;-65
2022/12/21 05:41:01;;;;;;;8.27;6.50;;;6.20;91.60;;;;;;4983263;28;20569;-64
2022/12/21 05:43:27;;;;;;;9.52;6.80;;;6.20;91.60;;;;;;4977820;28;20130;-64
2022/12/21 05:45:52;;;;;;;10.90;6.20;;;6.30;91.60;;;;;;4979776;28;20121;-64
2022/12/21 05:48:18;;;;;;;7.15;6.00;;;6.30;91.50;;;;;;4981125;28;20046;-64
2022/12/21 05:50:44;;;;;;;12.23;6.57;;;6.40;91.50;;;;;;4982131;28;20042;-64
2022/12/21 05:53:09;;;;;;;7.22;5.55;;;6.50;91.50;;;;;;4983943;28;20132;-64
2022/12/21 05:55:35;;;;;;;10.40;5.93;;;6.60;91.50;;;;;;4983291;28;20038;-64
2022/12/21 05:58:01;;;;;;;6.78;5.25;;;6.60;91.40;;;;;;4981404;28;20042;-65
2022/12/21 06:00:27;;;;;;;7.22;4.70;;;6.70;91.30;;;;;;4982262;28;20041;-64
2022/12/21 06:02:53;;;;;;;6.03;4.72;;;6.70;91.20;;;;;;4977664;28;20408;-64
2022/12/21 06:05:19;;;;;;;7.28;5.07;;;6.70;91.20;;;;;;4984037;28;20045;-64
2022/12/21 06:07:44;;;;;;;7.00;5.60;;;6.80;91.20;;;;;;4985071;28;20034;-64
2022/12/21 06:10:10;;;;;;;7.90;5.13;;;6.80;91.20;;;;;;4984920;28;20041;-64
2022/12/21 06:12:36;;;;;;;8.13;6.00;;;6.90;91.20;;;;;;4981208;28;20030;-64
2022/12/21 06:15:01;;;;;;;6.85;5.82;;;6.90;91.30;;;;;;4983631;28;20034;-63
2022/12/21 06:17:28;;;;;;;8.63;5.10;;;6.90;91.30;;;;;;4982061;28;20023;-64
2022/12/21 06:19:54;;;;;;;8.57;5.50;;;7.00;91.30;;;;;;4982356;28;20050;-63
2022/12/21 06:22:19;;;;;;;6.60;4.60;;;7.00;91.20;;;;;;4986376;28;20501;-64
2022/12/21 06:24:45;;;;;;;7.90;5.65;;;7.00;91.20;;;;;;4985172;28;20074;-64
2022/12/21 06:27:10;;;;;;;8.15;5.80;;;7.10;91.20;;;;;;4986617;28;20383;-64
2022/12/21 06:29:36;;;;;;;10.23;7.32;;;7.10;91.20;;;;;;4986914;28;20143;-64
2022/12/21 06:32:01;;;;;;;9.88;6.28;;;7.10;91.20;;;;;;4979813;28;20049;-63
2022/12/21 06:34:27;;;;;;;9.02;6.20;;;7.10;91.20;;;;;;4978766;28;20048;-63
2022/12/21 06:36:52;;;;;;;8.30;5.85;;;7.20;91.20;;;;;;4982561;28;20064;-63
2022/12/21 06:39:18;;;;;;;8.25;5.70;;;7.20;91.20;;;;;;4979194;28;20418;-64
2022/12/21 06:41:44;;;;;;;6.45;5.05;;;7.20;91.20;;;;;;4981695;28;20106;-63
2022/12/21 06:44:09;;;;;;;7.25;5.18;;;7.30;91.20;;;;;;4981050;28;20043;-63
2022/12/21 06:46:35;;;;;;;7.10;4.78;;;7.30;91.10;;;;;;4982007;28;20742;-63
2022/12/21 06:49:00;;;;;;;7.47;5.28;;;7.30;91.40;;;;;;4988711;28;20562;-63
2022/12/21 06:51:27;;;;;;;9.20;5.32;;;7.30;91.00;;;;;;4978846;28;20113;-63
2022/12/21 06:53:53;;;;;;;5.57;4.70;;;7.30;91.00;;;;;;4981201;28;20038;-64
2022/12/21 06:56:30;;;;;;;8.30;4.88;;;7.30;90.90;;;;;;4980727;28;20038;-64
2022/12/21 06:58:56;;;;;;;6.75;4.55;;;7.40;91.00;;;;;;4981253;28;20473;-64
2022/12/21 07:01:25;;;;;;;6.03;4.30;;;7.40;91.00;;;;;;4979699;28;20510;-63
2022/12/21 07:03:52;;;;;;;5.50;4.15;;;7.40;91.00;;;;;;4981744;28;20126;-65
2022/12/21 07:06:19;;;;;;;7.07;4.00;;;7.40;91.10;;;;;;4980188;28;20038;-64
2022/12/21 07:08:45;;;;;;;5.75;3.78;;;7.40;91.10;;;;;;4981359;28;23169;-62
2022/12/21 07:11:16;;;;;;;5.85;3.65;;;7.50;91.10;;;;;;4981447;28;20035;-63
2022/12/21 07:13:44;;;;;;;4.38;3.33;;;7.50;91.20;;;;;;4981880;28;20043;-63
2022/12/21 07:16:13;;;;;;;5.82;3.40;;;7.50;91.20;;;;;;4982302;28;20305;-64
2022/12/21 07:18:40;;;;;;;3.92;3.25;;;7.50;91.30;;;;;;4987735;28;20034;-64
2022/12/21 07:21:09;;;;;;;3.30;2.80;;;7.50;91.30;;;;;;4987726;28;20558;-63
2022/12/21 07:23:37;;;;;;;3.92;2.80;;;7.60;91.40;;;;;;4985555;28;20617;-63
2022/12/21 07:26:13;;;;;;;3.72;3.00;;;7.70;91.50;;;;;;4985177;28;20072;-63
2022/12/21 07:28:39;;;;;;;3.70;2.72;;;7.70;91.60;;;;;;4981306;28;20574;-62
2022/12/21 07:31:07;;;;;;;3.63;2.60;;;7.70;91.50;;;;;;4966534;28;20044;-62
2022/12/21 07:33:33;;;;;;;5.18;2.30;;;7.80;91.60;;;;;;4967522;28;20507;-63
2022/12/21 07:36:03;;;;;;;3.70;2.13;;;7.80;91.60;;;;;;4955805;28;20039;-63
2022/12/21 07:38:30;;;;;;;4.18;2.30;;;7.90;91.60;;;;;;4971685;28;20089;-63
2022/12/21 07:40:57;;;;;;;3.55;1.90;;;7.90;91.60;;;;;;4975534;28;20049;-63
2022/12/21 07:43:22;;;;;;;4.60;2.10;;;7.90;91.60;;;;;;4980493;28;20061;-63
2022/12/21 07:45:48;;;;;;;5.78;1.60;;;8.00;91.60;;;;;;4975652;28;20130;-62
2022/12/21 07:48:13;;;;;;;2.97;2.10;;;8.00;91.60;;;;;;4983155;28;20042;-61
2022/12/21 07:50:39;;;;;;;4.15;2.20;;;8.10;91.70;;;;;;4980649;28;20319;-63
2022/12/21 07:53:05;;;;;;;3.85;1.80;;;8.10;91.60;;;;;;4981149;28;20034;-63
2022/12/21 07:55:31;;;;;;;4.45;2.03;;;8.20;91.60;;;;;;4983482;28;20045;-63
2022/12/21 07:57:57;;;;;;;6.88;1.70;;;8.20;91.60;;;;;;4980525;28;20039;-62
2022/12/21 08:00:23;;;;;;;2.67;1.75;;;8.20;91.50;;;;;;4979607;28;20398;-63
2022/12/21 08:02:50;;;;;;;3.15;1.80;;;8.30;91.60;;;;;;4980460;28;20057;-63
2022/12/21 08:05:19;;;;;;;3.10;1.60;;;8.40;91.60;;;;;;4982612;28;20035;-63
2022/12/21 08:07:46;;;;;;;1.80;1.50;;;8.30;91.50;;;;;;4980205;28;20502;-62
2022/12/21 08:10:12;;;;;;;2.40;1.67;;;8.40;91.50;;;;;;4981677;28;20039;-62
2022/12/21 08:12:38;;;;;;;1.98;1.60;;;8.40;91.50;;;;;;4976081;28;20129;-62
2022/12/21 08:15:04;;;;;;;3.40;1.58;;;8.40;91.50;;;;;;4981419;28;20545;-62
2022/12/21 08:17:29;;;;;;;4.32;1.80;;;8.50;91.40;;;;;;4980710;28;20038;-62
2022/12/21 08:19:56;;;;;;;1.92;1.50;;;8.50;91.40;;;;;;4980087;28;20042;-61
2022/12/21 08:22:22;;;;;;;2.42;1.50;;;8.50;91.40;;;;;;4974153;28;20037;-62
2022/12/21 08:24:51;;;;;;;2.45;1.63;;;8.50;91.30;;;;;;4983586;28;20034;-61
2022/12/21 08:27:17;;;;;;;2.83;1.30;;;8.60;91.30;;;;;;4981769;28;20167;-63
2022/12/21 08:29:43;;;;;;;2.33;1.42;;;8.60;91.30;;;;;;4980997;28;20077;-62
2022/12/21 08:32:08;;;;;;;1.67;1.30;;;8.60;91.30;;;;;;4988014;28;20034;-61
2022/12/21 08:34:34;;;;;;;2.33;1.27;;;8.60;91.30;;;;;;4983620;28;20441;-62
2022/12/21 08:37:00;;;;;;;2.88;1.77;;;8.60;91.70;;;;;;4980562;28;20048;-62
2022/12/21 08:39:26;;;;;;;3.55;2.50;;;8.60;91.20;;;;;;4979176;28;20355;-61
2022/12/21 08:41:52;;;;;;;3.35;2.55;;;8.60;91.00;;;;;;4981751;28;20111;-62
2022/12/21 08:44:17;;;;;;;2.28;2.08;;;8.60;90.90;;;;;;4983524;28;20087;-62
2022/12/21 08:46:43;;;;;;;3.40;2.28;;;8.60;90.80;;;;;;4977016;28;20491;-63
2022/12/21 08:49:09;;;;;;;3.80;2.22;;;8.60;90.70;;;;;;4983029;28;20437;-62
2022/12/21 08:51:34;;;;;;;3.63;2.50;;;8.50;90.60;;;;;;4979022;28;20552;-63
2022/12/21 08:54:00;;;;;;;3.75;2.63;;;8.50;90.60;;;;;;4983338;28;20647;-62
2022/12/21 08:56:26;;;;;;;4.00;2.58;;;8.50;90.70;;;;;;4983377;28;20093;-63
2022/12/21 08:58:52;;;;;;;3.47;3.00;;;8.40;90.80;;;;;;4978907;28;20034;-60
2022/12/21 09:01:19;;;;;;;5.40;2.90;;;8.40;90.80;;;;;;4979370;28;20104;-60
2022/12/21 09:03:45;;;;;;;6.28;3.13;;;8.40;90.80;;;;;;4983149;28;20077;-63
2022/12/21 09:06:11;;;;;;;5.20;2.90;;;8.40;90.80;;;;;;4981374;28;20038;-63
2022/12/21 09:08:37;;;;;;;4.07;3.15;;;8.40;90.80;;;;;;4983673;28;20046;-63
2022/12/21 09:11:05;;;;;;;3.88;3.35;;;8.30;90.80;;;;;;4976346;28;20117;-62
2022/12/21 09:13:31;;;;;;;4.82;3.75;;;8.30;90.70;;;;;;4981075;28;20117;-62
2022/12/21 09:15:57;;;;;;;5.63;3.63;;;8.30;90.80;;;;;;4979164;28;20435;-63
2022/12/21 09:18:23;;;;;;;4.93;4.03;;;8.30;90.80;;;;;;4978810;28;20054;-63
2022/12/21 09:20:48;;;;;;;5.00;4.50;;;8.30;90.80;;;;;;4979828;28;20034;-62
2022/12/21 09:23:14;;;;;;;5.60;4.50;;;8.30;90.80;;;;;;4981619;28;20089;-63
2022/12/21 09:25:40;;;;;;;8.35;4.82;;;8.20;90.80;;;;;;4980046;28;20475;-62
2022/12/21 09:28:05;;;;;;;5.63;4.80;;;8.20;90.80;;;;;;4974895;28;20046;-63
2022/12/21 09:30:31;;;;;;;5.70;4.80;;;8.20;90.90;;;;;;4977066;28;20052;-63
2022/12/21 09:32:56;;;;;;;6.25;4.80;;;8.20;90.90;;;;;;4977430;28;20414;-62
2022/12/21 09:35:23;;;;;;;6.57;4.70;;;8.20;91.00;;;;;;4977691;28;20034;-63
2022/12/21 09:37:49;;;;;;;5.80;4.60;;;8.10;91.00;;;;;;4977171;28;20042;-63
2022/12/21 09:40:16;;;;;;;7.03;5.07;;;8.10;91.00;;;;;;4980362;28;20089;-60
2022/12/21 09:42:52;;;;;;;6.47;5.22;;;8.10;91.00;;;;;;4980693;28;20121;-62
2022/12/21 09:45:27;;;;;;;6.13;5.10;;;8.10;91.10;;;;;;4984052;28;20030;-62
2022/12/21 09:48:04;;;;;;;6.93;5.03;;;8.10;91.20;;;;;;4979671;28;20041;-62
2022/12/21 09:51:08;;;;;;;5.53;4.72;;;8.10;91.20;;;;;;4979528;28;20096;-62
2022/12/21 09:53:44;;;;;;;4.85;4.28;;;8.10;91.30;;;;;;4968146;28;20030;-63
2022/12/21 09:56:16;;;;;;;4.88;4.35;;;8.10;91.20;;;;;;4978757;28;20027;-63
2022/12/21 09:58:44;;;;;;;5.80;4.38;;;8.10;91.20;;;;;;4978341;28;20061;-63
2022/12/21 10:01:39;;;;;;;8.05;5.53;;;8.10;91.20;;;;;;4976528;28;20538;-63
2022/12/21 10:04:11;;;;;;;;;;;8.20;91.30;;;;;;4982698;28;20034;-62
2022/12/21 10:06:52;;;;;;;10.80;5.95;;;8.20;91.60;;;;;;4982186;28;19918;-62
2022/12/21 10:09:34;;;;;;;5.80;4.85;;;8.20;91.30;;;;;;4979357;28;20108;-63
2022/12/21 10:12:15;;;;;;;5.95;4.95;;;8.20;91.40;;;;;;4973716;28;20538;-62
2022/12/21 10:14:58;;;;;;;6.70;5.18;;;8.30;91.70;;;;;;4980559;28;20073;-62
2022/12/21 10:17:23;;;;;;;7.57;5.13;;;8.20;91.70;;;;;;4975034;28;20125;-62
2022/12/21 10:19:55;;;;;;;6.15;4.70;;;8.30;91.70;;;;;;4980337;28;20033;-63
2022/12/21 10:22:32;;;;;;;4.70;4.10;;;8.30;91.80;;;;;;4976792;28;20388;-62
2022/12/21 10:25:02;;;;;;;5.95;4.38;;;8.30;91.70;;;;;;4977020;28;20042;-63
2022/12/21 10:27:44;;;;;;;6.40;4.47;;;8.40;91.70;;;;;;4980014;28;21745;-62
2022/12/21 10:30:15;;;;;;;5.45;4.70;;;8.40;91.60;;;;;;4974966;28;20037;-62
2022/12/21 10:32:44;;;;;;;6.30;4.18;;;8.40;91.50;;;;;;4977273;28;20031;-63
2022/12/21 10:35:35;;;;;;;5.47;4.38;;;8.50;91.40;;;;;;4983611;28;20050;-62
2022/12/21 10:38:00;;;;;;;7.15;4.65;;;8.50;91.40;;;;;;4986216;28;20038;-63
2022/12/21 10:40:30;;;;;;;9.45;6.75;;;8.50;91.30;;;;;;4984053;28;20081;-63
2022/12/21 10:42:56;;;;;;;15.68;10.57;;;8.50;91.20;;;;;;4985226;28;20057;-63
2022/12/21 10:45:24;;;;;;;14.65;10.00;;;8.60;91.20;;;;;;4983578;28;20385;-62
2022/12/21 10:47:50;;;;;;;12.40;8.23;;;8.60;91.20;;;;;;4985107;28;20046;-63
2022/12/21 10:50:21;;;;;;;6.05;5.32;;;8.60;91.20;;;;;;4984818;28;20513;-63
2022/12/21 10:52:52;;;;;;;9.77;7.15;;;8.60;91.20;;;;;;4985853;28;20072;-63
2022/12/21 10:55:17;;;;;;;9.07;6.38;;;8.70;91.20;;;;;;4991173;28;20046;-62
2022/12/21 10:57:51;;;;;;;8.75;6.70;;;8.70;91.20;;;;;;4993585;28;20041;-63
2022/12/21 11:00:29;;;;;;;8.63;6.32;;;8.70;91.20;;;;;;4989147;28;20585;-64
2022/12/21 11:03:03;;;;;;;17.42;9.30;;;8.70;91.20;;;;;;4988894;28;20042;-64
2022/12/21 11:05:34;;;;;;;80.95;35.10;;;8.70;91.20;;;;;;4989963;28;20041;-63
2022/12/21 11:08:14;;;;;;;23.55;13.95;;;8.80;91.20;;;;;;4989508;28;20058;-63
2022/12/21 11:10:49;;;;;;;9.98;6.32;;;8.80;91.10;;;;;;4985282;28;20084;-63
2022/12/21 11:13:18;;;;;;;19.25;11.80;;;8.80;91.10;;;;;;4987691;28;20035;-63
2022/12/21 11:16:00;;;;;;;11.63;7.55;;;8.80;91.10;;;;;;4988580;28;20149;-63
2022/12/21 11:18:43;;;;;;;7.35;5.57;;;8.80;91.10;;;;;;4987434;28;20411;-63
2022/12/21 11:21:34;;;;;;;7.25;5.40;;;8.90;91.10;;;;;;4988213;28;20030;-63
2022/12/21 11:24:13;;;;;;;10.45;7.97;;;8.90;91.10;;;;;;4987094;28;20105;-61
2022/12/21 11:26:46;;;;;;;5.50;4.82;;;8.90;91.10;;;;;;4986214;28;20583;-62
2022/12/21 11:29:20;;;;;;;7.65;4.70;;;8.90;91.00;;;;;;4988314;28;20046;-63
2022/12/21 11:31:46;;;;;;;7.88;6.18;;;9.00;91.00;;;;;;4986026;28;20521;-63
2022/12/21 11:34:24;;;;;;;7.70;5.40;;;9.00;91.00;;;;;;4985387;28;20038;-63
2022/12/21 11:36:59;;;;;;;6.13;5.07;;;9.00;91.00;;;;;;4986790;28;20038;-63
2022/12/21 11:39:25;;;;;;;11.52;7.50;;;9.00;91.00;;;;;;4986995;28;20130;-62
2022/12/21 11:41:52;;;;;;;8.20;6.00;;;9.00;91.00;;;;;;4989811;28;20129;-63
2022/12/21 11:44:23;;;;;;;11.05;7.03;;;9.10;91.00;;;;;;4987417;28;20034;-63
2022/12/21 11:47:19;;;;;;;12.77;7.55;;;9.10;91.10;;;;;;4987688;28;20089;-62
2022/12/21 11:50:09;;;;;;;10.90;6.35;;;9.10;91.20;;;;;;4986850;28;20026;-63
2022/12/21 11:53:06;;;;;;;6.75;4.85;;;9.10;91.10;;;;;;4987500;28;20056;-62
2022/12/21 11:55:41;;;;;;;4.68;3.65;;;9.20;91.00;;;;;;4988545;28;20601;-63
2022/12/21 11:58:25;;;;;;;6.07;3.88;;;9.20;90.90;;;;;;4987305;28;20044;-61
2022/12/21 12:01:28;;;;;;;3.83;3.40;;;9.20;90.80;;;;;;4986623;28;20129;-62
2022/12/21 12:04:22;;;;;;;4.65;3.47;;;9.20;90.80;;;;;;4986084;28;20514;-62
2022/12/21 12:06:47;;;;;;;3.67;3.30;;;9.30;90.70;;;;;;4988508;28;20038;-62
2022/12/21 12:09:19;;;;;;;4.07;3.20;;;9.20;90.70;;;;;;4987815;28;20113;-62
2022/12/21 12:11:58;;;;;;;5.43;4.00;;;9.20;90.70;;;;;;4985837;28;20034;-61
2022/12/21 12:14:37;;;;;;;5.53;3.47;;;9.30;90.90;;;;;;4986163;28;20034;-63
2022/12/21 12:17:08;;;;;;;6.00;3.17;;;9.30;91.00;;;;;;4983874;28;20035;-62
2022/12/21 12:19:49;;;;;;;4.03;2.88;;;9.30;90.90;;;;;;4987841;28;20050;-63
2022/12/21 12:22:44;;;;;;;3.67;3.00;;;9.30;90.80;;;;;;4986581;28;20041;-61
2022/12/21 12:25:18;;;;;;;4.65;2.60;;;9.30;90.80;;;;;;4986930;28;20034;-63
2022/12/21 12:28:24;;;;;;;5.25;3.08;;;9.40;90.90;;;;;;4988009;28;20034;-63
2022/12/21 12:31:31;;;;;;;3.35;3.00;;;9.40;91.20;;;;;;4987275;28;20041;-62
2022/12/21 12:34:11;;;;;;;5.97;3.30;;;9.50;91.40;;;;;;4987262;28;20267;-62
2022/12/21 12:36:54;;;;;;;4.07;2.92;;;9.50;91.30;;;;;;4984457;28;20450;-62
2022/12/21 12:39:38;;;;;;;3.33;2.70;;;9.50;91.40;;;;;;4987414;28;20026;-62
2022/12/21 12:42:07;;;;;;;4.90;2.90;;;9.60;91.30;;;;;;4984797;28;20030;-62
2022/12/21 12:44:35;;;;;;;3.38;3.08;;;9.70;91.30;;;;;;4986034;28;20046;-62
2022/12/21 12:47:27;;;;;;;4.95;3.47;;;9.70;91.20;;;;;;4987975;28;20073;-62
2022/12/21 12:50:26;;;;;;;6.15;3.30;;;9.80;91.10;;;;;;4984724;28;20042;-61
2022/12/21 12:53:00;;;;;;;3.10;2.83;;;9.80;91.10;;;;;;4985752;28;20038;-62
2022/12/21 12:55:51;;;;;;;5.75;3.50;;;9.80;91.00;;;;;;4986286;28;20030;-62
2022/12/21 12:58:41;;;;;;;6.78;3.92;;;9.90;91.10;;;;;;4987703;28;20032;-61
2022/12/21 13:01:36;;;;;;;3.75;2.88;;;9.90;90.90;;;;;;4985398;28;20026;-61
2022/12/21 13:04:19;;;;;;;3.65;3.08;;;9.90;91.10;;;;;;4983678;28;20137;-62
2022/12/21 13:06:55;;;;;;;4.53;3.65;;;10.00;91.20;;;;;;4982185;28;20026;-62
2022/12/21 13:09:42;;;;;;;6.22;3.53;;;10.00;91.20;;;;;;4987012;28;20050;-63
2022/12/21 13:12:20;;;;;;;5.55;4.25;;;10.00;91.10;;;;;;4984556;28;20113;-60
2022/12/21 13:14:52;;;;;;;6.50;4.72;;;10.10;91.00;;;;;;4984005;28;20042;-62
2022/12/21 13:17:38;;;;;;;6.63;3.60;;;10.10;90.90;;;;;;4985748;28;20109;-64
2022/12/21 13:20:08;;;;;;;4.18;3.10;;;10.20;90.80;;;;;;4986044;28;20394;-63
2022/12/21 13:22:36;;;;;;;3.20;2.83;;;10.20;90.70;;;;;;4985169;28;20161;-63
2022/12/21 13:25:25;;;;;;;4.10;2.67;;;10.20;90.60;;;;;;4982133;28;20093;-63
2022/12/21 13:27:53;;;;;;;3.85;2.38;;;10.20;90.40;;;;;;4986190;28;20628;-63
2022/12/21 13:30:21;;;;;;;3.13;2.40;;;10.20;90.40;;;;;;4985850;28;20546;-63